sensor_id;sensor_type;location;lat;lon;timestamp;P1;durP1;ratioP1;P2;durP2;ratioP2
43345;SDS011;28937;51.160;4.146;2023-07-24T00:00:03;2.58;;;2.38;;
43345;SDS011;28937;51.160;4.146;2023-07-24T00:02:29;2.72;;;2.28;;
43345;SDS011;28937;51.160;4.146;2023-07-24T00:04:54;6.00;;;1.98;;
43345;SDS011;28937;51.160;4.146;2023-07-24T00:07:20;2.40;;;2.15;;
43345;SDS011;28937;51.160;4.146;2023-07-24T00:09:45;3.70;;;1.50;;
43345;SDS011;28937;51.160;4.146;2023-07-24T00:12:11;3.45;;;1.65;;
43345;SDS011;28937;51.160;4.146;2023-07-24T00:14:36;1.80;;;1.40;;
43345;SDS011;28937;51.160;4.146;2023-07-24T00:17:02;2.10;;;1.17;;
43345;SDS011;28937;51.160;4.146;2023-07-24T00:19:28;2.00;;;1.30;;
43345;SDS011;28937;51.160;4.146;2023-07-24T00:21:53;1.30;;;1.00;;
43345;SDS011;28937;51.160;4.146;2023-07-24T00:24:19;2.38;;;1.25;;
43345;SDS011;28937;51.160;4.146;2023-07-24T00:26:44;1.40;;;0.68;;
43345;SDS011;28937;51.160;4.146;2023-07-24T00:29:10;1.10;;;0.60;;
43345;SDS011;28937;51.160;4.146;2023-07-24T00:31:35;2.80;;;0.73;;
43345;SDS011;28937;51.160;4.146;2023-07-24T00:34:01;1.50;;;0.77;;
43345;SDS011;28937;51.160;4.146;2023-07-24T00:36:26;1.45;;;0.70;;
43345;SDS011;28937;51.160;4.146;2023-07-24T00:38:52;1.13;;;0.70;;
43345;SDS011;28937;51.160;4.146;2023-07-24T00:41:17;1.13;;;0.50;;
43345;SDS011;28937;51.160;4.146;2023-07-24T00:43:43;1.48;;;0.70;;
43345;SDS011;28937;51.160;4.146;2023-07-24T00:46:09;2.35;;;0.50;;
43345;SDS011;28937;51.160;4.146;2023-07-24T00:48:36;1.20;;;0.70;;
43345;SDS011;28937;51.160;4.146;2023-07-24T00:51:02;1.50;;;0.98;;
43345;SDS011;28937;51.160;4.146;2023-07-24T00:53:28;1.10;;;0.77;;
43345;SDS011;28937;51.160;4.146;2023-07-24T00:55:53;2.90;;;0.93;;
43345;SDS011;28937;51.160;4.146;2023-07-24T00:58:19;2.08;;;0.88;;
43345;SDS011;28937;51.160;4.146;2023-07-24T01:00:46;1.27;;;0.75;;
43345;SDS011;28937;51.160;4.146;2023-07-24T01:03:11;1.60;;;0.85;;
43345;SDS011;28937;51.160;4.146;2023-07-24T01:05:37;1.45;;;0.82;;
43345;SDS011;28937;51.160;4.146;2023-07-24T01:08:03;2.08;;;0.80;;
43345;SDS011;28937;51.160;4.146;2023-07-24T01:10:29;1.38;;;0.80;;
43345;SDS011;28937;51.160;4.146;2023-07-24T01:15:45;2.35;;;0.90;;
43345;SDS011;28937;51.160;4.146;2023-07-24T01:18:17;2.28;;;0.90;;
43345;SDS011;28937;51.160;4.146;2023-07-24T01:20:48;2.67;;;1.17;;
43345;SDS011;28937;51.160;4.146;2023-07-24T01:26:00;2.20;;;1.08;;
43345;SDS011;28937;51.160;4.146;2023-07-24T01:28:29;2.65;;;0.98;;
43345;SDS011;28937;51.160;4.146;2023-07-24T01:30:55;1.55;;;1.02;;
43345;SDS011;28937;51.160;4.146;2023-07-24T01:33:21;3.50;;;1.20;;
43345;SDS011;28937;51.160;4.146;2023-07-24T01:35:53;1.63;;;1.30;;
43345;SDS011;28937;51.160;4.146;2023-07-24T01:38:22;1.98;;;0.95;;
43345;SDS011;28937;51.160;4.146;2023-07-24T01:40:50;2.78;;;1.30;;
43345;SDS011;28937;51.160;4.146;2023-07-24T01:43:20;2.78;;;1.10;;
43345;SDS011;28937;51.160;4.146;2023-07-24T01:45:45;2.03;;;1.20;;
43345;SDS011;28937;51.160;4.146;2023-07-24T01:48:11;2.70;;;1.20;;
43345;SDS011;28937;51.160;4.146;2023-07-24T01:50:36;2.25;;;1.15;;
43345;SDS011;28937;51.160;4.146;2023-07-24T01:53:02;2.20;;;1.13;;
43345;SDS011;28937;51.160;4.146;2023-07-24T01:55:28;3.58;;;1.30;;
43345;SDS011;28937;51.160;4.146;2023-07-24T01:57:53;2.78;;;1.25;;
43345;SDS011;28937;51.160;4.146;2023-07-24T02:00:19;2.22;;;1.45;;
43345;SDS011;28937;51.160;4.146;2023-07-24T02:02:44;1.83;;;1.20;;
43345;SDS011;28937;51.160;4.146;2023-07-24T02:05:10;3.20;;;1.20;;
43345;SDS011;28937;51.160;4.146;2023-07-24T02:07:36;1.58;;;1.30;;
43345;SDS011;28937;51.160;4.146;2023-07-24T02:10:02;2.42;;;1.48;;
43345;SDS011;28937;51.160;4.146;2023-07-24T02:12:27;2.38;;;1.33;;
43345;SDS011;28937;51.160;4.146;2023-07-24T02:14:53;1.63;;;1.27;;
43345;SDS011;28937;51.160;4.146;2023-07-24T02:17:19;2.08;;;1.33;;
43345;SDS011;28937;51.160;4.146;2023-07-24T02:19:45;2.25;;;1.17;;
43345;SDS011;28937;51.160;4.146;2023-07-24T02:22:11;2.65;;;1.23;;
43345;SDS011;28937;51.160;4.146;2023-07-24T02:24:36;1.65;;;1.05;;
43345;SDS011;28937;51.160;4.146;2023-07-24T02:27:02;3.03;;;1.50;;
43345;SDS011;28937;51.160;4.146;2023-07-24T02:29:29;1.65;;;1.25;;
43345;SDS011;28937;51.160;4.146;2023-07-24T02:31:55;1.75;;;1.60;;
43345;SDS011;28937;51.160;4.146;2023-07-24T02:34:22;2.55;;;1.60;;
43345;SDS011;28937;51.160;4.146;2023-07-24T02:36:51;1.60;;;1.30;;
43345;SDS011;28937;51.160;4.146;2023-07-24T02:39:19;3.50;;;1.95;;
43345;SDS011;28937;51.160;4.146;2023-07-24T02:41:46;2.13;;;1.67;;
43345;SDS011;28937;51.160;4.146;2023-07-24T02:44:12;2.25;;;1.95;;
43345;SDS011;28937;51.160;4.146;2023-07-24T02:46:38;2.53;;;1.52;;
43345;SDS011;28937;51.160;4.146;2023-07-24T02:49:04;3.25;;;1.50;;
43345;SDS011;28937;51.160;4.146;2023-07-24T02:51:30;2.75;;;1.70;;
43345;SDS011;28937;51.160;4.146;2023-07-24T02:53:56;2.75;;;1.88;;
43345;SDS011;28937;51.160;4.146;2023-07-24T02:56:21;2.88;;;2.05;;
43345;SDS011;28937;51.160;4.146;2023-07-24T02:58:47;2.95;;;2.40;;
43345;SDS011;28937;51.160;4.146;2023-07-24T03:01:13;3.92;;;1.90;;
43345;SDS011;28937;51.160;4.146;2023-07-24T03:03:39;2.88;;;1.80;;
43345;SDS011;28937;51.160;4.146;2023-07-24T03:06:06;3.78;;;1.98;;
43345;SDS011;28937;51.160;4.146;2023-07-24T03:08:31;2.20;;;2.00;;
43345;SDS011;28937;51.160;4.146;2023-07-24T03:10:57;2.40;;;1.98;;
43345;SDS011;28937;51.160;4.146;2023-07-24T03:13:23;3.28;;;2.35;;
43345;SDS011;28937;51.160;4.146;2023-07-24T03:15:53;3.25;;;2.50;;
43345;SDS011;28937;51.160;4.146;2023-07-24T03:18:20;4.15;;;2.83;;
43345;SDS011;28937;51.160;4.146;2023-07-24T03:20:45;2.55;;;2.15;;
43345;SDS011;28937;51.160;4.146;2023-07-24T03:23:11;3.83;;;2.33;;
43345;SDS011;28937;51.160;4.146;2023-07-24T03:25:36;2.45;;;2.00;;
43345;SDS011;28937;51.160;4.146;2023-07-24T03:28:02;3.08;;;2.03;;
43345;SDS011;28937;51.160;4.146;2023-07-24T03:30:28;2.88;;;2.10;;
43345;SDS011;28937;51.160;4.146;2023-07-24T03:32:54;3.25;;;2.03;;
43345;SDS011;28937;51.160;4.146;2023-07-24T03:35:19;3.55;;;2.10;;
43345;SDS011;28937;51.160;4.146;2023-07-24T03:37:45;2.72;;;2.42;;
43345;SDS011;28937;51.160;4.146;2023-07-24T03:40:11;3.22;;;2.10;;
43345;SDS011;28937;51.160;4.146;2023-07-24T03:42:37;1.92;;;1.70;;
43345;SDS011;28937;51.160;4.146;2023-07-24T03:45:02;2.40;;;1.98;;
43345;SDS011;28937;51.160;4.146;2023-07-24T03:47:28;3.10;;;2.05;;
43345;SDS011;28937;51.160;4.146;2023-07-24T03:49:54;2.92;;;1.95;;
43345;SDS011;28937;51.160;4.146;2023-07-24T03:52:20;3.10;;;1.92;;
43345;SDS011;28937;51.160;4.146;2023-07-24T03:54:45;2.35;;;1.85;;
43345;SDS011;28937;51.160;4.146;2023-07-24T03:57:11;2.35;;;1.95;;
43345;SDS011;28937;51.160;4.146;2023-07-24T03:59:37;3.67;;;2.15;;
43345;SDS011;28937;51.160;4.146;2023-07-24T04:02:03;3.42;;;2.20;;
43345;SDS011;28937;51.160;4.146;2023-07-24T04:04:29;3.78;;;1.90;;
43345;SDS011;28937;51.160;4.146;2023-07-24T04:06:54;3.75;;;2.53;;
43345;SDS011;28937;51.160;4.146;2023-07-24T04:09:20;5.15;;;2.50;;
43345;SDS011;28937;51.160;4.146;2023-07-24T04:11:46;4.50;;;2.35;;
43345;SDS011;28937;51.160;4.146;2023-07-24T04:14:11;3.45;;;2.30;;
43345;SDS011;28937;51.160;4.146;2023-07-24T04:16:37;3.80;;;2.55;;
43345;SDS011;28937;51.160;4.146;2023-07-24T04:19:02;3.83;;;2.88;;
43345;SDS011;28937;51.160;4.146;2023-07-24T04:21:28;5.43;;;2.80;;
43345;SDS011;28937;51.160;4.146;2023-07-24T04:23:54;5.55;;;2.33;;
43345;SDS011;28937;51.160;4.146;2023-07-24T04:26:19;3.72;;;2.78;;
43345;SDS011;28937;51.160;4.146;2023-07-24T04:28:45;3.67;;;2.78;;
43345;SDS011;28937;51.160;4.146;2023-07-24T04:31:10;3.58;;;2.50;;
43345;SDS011;28937;51.160;4.146;2023-07-24T04:33:36;2.88;;;2.30;;
43345;SDS011;28937;51.160;4.146;2023-07-24T04:36:01;2.90;;;2.42;;
43345;SDS011;28937;51.160;4.146;2023-07-24T04:38:27;4.53;;;2.70;;
43345;SDS011;28937;51.160;4.146;2023-07-24T04:40:53;4.35;;;2.65;;
43345;SDS011;28937;51.160;4.146;2023-07-24T04:43:18;4.43;;;2.40;;
43345;SDS011;28937;51.160;4.146;2023-07-24T04:45:44;3.28;;;2.50;;
43345;SDS011;28937;51.160;4.146;2023-07-24T04:48:10;3.95;;;2.72;;
43345;SDS011;28937;51.160;4.146;2023-07-24T04:50:35;4.70;;;2.33;;
43345;SDS011;28937;51.160;4.146;2023-07-24T04:53:01;3.88;;;1.92;;
43345;SDS011;28937;51.160;4.146;2023-07-24T04:55:27;4.15;;;2.35;;
43345;SDS011;28937;51.160;4.146;2023-07-24T04:57:52;5.97;;;2.92;;
43345;SDS011;28937;51.160;4.146;2023-07-24T05:00:18;4.45;;;2.30;;
43345;SDS011;28937;51.160;4.146;2023-07-24T05:02:43;2.75;;;2.30;;
43345;SDS011;28937;51.160;4.146;2023-07-24T05:05:09;3.40;;;2.20;;
43345;SDS011;28937;51.160;4.146;2023-07-24T05:07:34;3.05;;;2.10;;
43345;SDS011;28937;51.160;4.146;2023-07-24T05:10:00;2.47;;;2.28;;
43345;SDS011;28937;51.160;4.146;2023-07-24T05:12:25;3.50;;;2.22;;
43345;SDS011;28937;51.160;4.146;2023-07-24T05:14:51;3.08;;;2.20;;
43345;SDS011;28937;51.160;4.146;2023-07-24T05:17:17;3.45;;;2.00;;
43345;SDS011;28937;51.160;4.146;2023-07-24T05:19:42;3.65;;;1.80;;
43345;SDS011;28937;51.160;4.146;2023-07-24T05:22:08;2.40;;;2.13;;
43345;SDS011;28937;51.160;4.146;2023-07-24T05:24:35;2.33;;;1.88;;
43345;SDS011;28937;51.160;4.146;2023-07-24T05:27:01;2.60;;;2.30;;
43345;SDS011;28937;51.160;4.146;2023-07-24T05:29:27;6.57;;;2.30;;
43345;SDS011;28937;51.160;4.146;2023-07-24T05:31:53;3.65;;;2.33;;
43345;SDS011;28937;51.160;4.146;2023-07-24T05:34:18;3.47;;;2.20;;
43345;SDS011;28937;51.160;4.146;2023-07-24T05:36:44;4.13;;;2.30;;
43345;SDS011;28937;51.160;4.146;2023-07-24T05:39:10;3.15;;;1.80;;
43345;SDS011;28937;51.160;4.146;2023-07-24T05:41:35;3.42;;;2.13;;
43345;SDS011;28937;51.160;4.146;2023-07-24T05:44:01;5.43;;;3.00;;
43345;SDS011;28937;51.160;4.146;2023-07-24T05:46:26;3.90;;;2.17;;
43345;SDS011;28937;51.160;4.146;2023-07-24T05:48:52;3.17;;;2.20;;
43345;SDS011;28937;51.160;4.146;2023-07-24T05:51:18;3.97;;;2.00;;
43345;SDS011;28937;51.160;4.146;2023-07-24T05:53:43;3.15;;;2.25;;
43345;SDS011;28937;51.160;4.146;2023-07-24T05:56:09;3.67;;;2.20;;
43345;SDS011;28937;51.160;4.146;2023-07-24T05:58:34;2.92;;;2.35;;
43345;SDS011;28937;51.160;4.146;2023-07-24T06:01:00;4.03;;;2.60;;
43345;SDS011;28937;51.160;4.146;2023-07-24T06:03:26;2.15;;;1.92;;
43345;SDS011;28937;51.160;4.146;2023-07-24T06:05:54;2.92;;;2.17;;
43345;SDS011;28937;51.160;4.146;2023-07-24T06:08:20;3.15;;;2.42;;
43345;SDS011;28937;51.160;4.146;2023-07-24T06:10:47;2.35;;;1.92;;
43345;SDS011;28937;51.160;4.146;2023-07-24T06:13:14;2.85;;;2.35;;
43345;SDS011;28937;51.160;4.146;2023-07-24T06:15:43;2.15;;;1.80;;
43345;SDS011;28937;51.160;4.146;2023-07-24T06:18:09;2.25;;;1.85;;
43345;SDS011;28937;51.160;4.146;2023-07-24T06:20:34;3.22;;;1.70;;
43345;SDS011;28937;51.160;4.146;2023-07-24T06:23:00;2.90;;;2.10;;
43345;SDS011;28937;51.160;4.146;2023-07-24T06:25:27;2.95;;;2.45;;
43345;SDS011;28937;51.160;4.146;2023-07-24T06:27:52;3.33;;;2.20;;
43345;SDS011;28937;51.160;4.146;2023-07-24T06:30:18;3.80;;;2.38;;
43345;SDS011;28937;51.160;4.146;2023-07-24T06:32:44;2.92;;;2.42;;
43345;SDS011;28937;51.160;4.146;2023-07-24T06:35:09;2.60;;;2.10;;
43345;SDS011;28937;51.160;4.146;2023-07-24T06:37:35;2.47;;;2.28;;
43345;SDS011;28937;51.160;4.146;2023-07-24T06:40:00;3.47;;;2.33;;
43345;SDS011;28937;51.160;4.146;2023-07-24T06:42:26;3.15;;;2.45;;
43345;SDS011;28937;51.160;4.146;2023-07-24T06:44:51;2.80;;;2.40;;
43345;SDS011;28937;51.160;4.146;2023-07-24T06:47:17;3.80;;;2.42;;
43345;SDS011;28937;51.160;4.146;2023-07-24T06:49:42;2.83;;;2.55;;
43345;SDS011;28937;51.160;4.146;2023-07-24T06:52:08;2.90;;;2.38;;
43345;SDS011;28937;51.160;4.146;2023-07-24T06:54:33;3.97;;;2.50;;
43345;SDS011;28937;51.160;4.146;2023-07-24T06:56:59;3.42;;;2.50;;
43345;SDS011;28937;51.160;4.146;2023-07-24T06:59:24;3.58;;;2.33;;
43345;SDS011;28937;51.160;4.146;2023-07-24T07:01:50;3.53;;;2.95;;
43345;SDS011;28937;51.160;4.146;2023-07-24T07:04:16;3.85;;;2.40;;
43345;SDS011;28937;51.160;4.146;2023-07-24T07:06:41;2.53;;;2.33;;
43345;SDS011;28937;51.160;4.146;2023-07-24T07:09:07;2.20;;;2.00;;
43345;SDS011;28937;51.160;4.146;2023-07-24T07:11:32;3.42;;;2.15;;
43345;SDS011;28937;51.160;4.146;2023-07-24T07:13:58;2.40;;;2.20;;
43345;SDS011;28937;51.160;4.146;2023-07-24T07:16:23;3.53;;;2.20;;
43345;SDS011;28937;51.160;4.146;2023-07-24T07:18:49;2.85;;;2.05;;
43345;SDS011;28937;51.160;4.146;2023-07-24T07:21:14;2.92;;;2.40;;
43345;SDS011;28937;51.160;4.146;2023-07-24T07:23:40;3.35;;;2.33;;
43345;SDS011;28937;51.160;4.146;2023-07-24T07:26:06;3.00;;;2.70;;
43345;SDS011;28937;51.160;4.146;2023-07-24T07:28:31;3.17;;;2.20;;
43345;SDS011;28937;51.160;4.146;2023-07-24T07:30:57;2.80;;;2.33;;
43345;SDS011;28937;51.160;4.146;2023-07-24T07:33:22;3.20;;;2.22;;
43345;SDS011;28937;51.160;4.146;2023-07-24T07:35:49;2.88;;;2.13;;
43345;SDS011;28937;51.160;4.146;2023-07-24T07:38:15;2.72;;;2.40;;
43345;SDS011;28937;51.160;4.146;2023-07-24T07:40:40;3.35;;;2.58;;
43345;SDS011;28937;51.160;4.146;2023-07-24T07:43:06;2.33;;;2.13;;
43345;SDS011;28937;51.160;4.146;2023-07-24T07:45:31;3.47;;;2.67;;
43345;SDS011;28937;51.160;4.146;2023-07-24T07:47:57;5.22;;;2.40;;
43345;SDS011;28937;51.160;4.146;2023-07-24T07:50:23;2.55;;;2.13;;
43345;SDS011;28937;51.160;4.146;2023-07-24T07:52:49;4.47;;;2.50;;
43345;SDS011;28937;51.160;4.146;2023-07-24T07:55:16;3.00;;;2.70;;
43345;SDS011;28937;51.160;4.146;2023-07-24T07:57:41;2.60;;;2.40;;
43345;SDS011;28937;51.160;4.146;2023-07-24T08:00:07;5.47;;;2.63;;
43345;SDS011;28937;51.160;4.146;2023-07-24T08:02:33;2.75;;;2.40;;
43345;SDS011;28937;51.160;4.146;2023-07-24T08:04:59;2.30;;;2.03;;
43345;SDS011;28937;51.160;4.146;2023-07-24T08:07:26;3.15;;;2.55;;
43345;SDS011;28937;51.160;4.146;2023-07-24T08:09:51;4.22;;;2.30;;
43345;SDS011;28937;51.160;4.146;2023-07-24T08:12:17;2.30;;;2.00;;
43345;SDS011;28937;51.160;4.146;2023-07-24T08:14:42;8.27;;;2.63;;
43345;SDS011;28937;51.160;4.146;2023-07-24T08:17:08;2.55;;;2.28;;
43345;SDS011;28937;51.160;4.146;2023-07-24T08:19:34;3.42;;;1.90;;
43345;SDS011;28937;51.160;4.146;2023-07-24T08:21:59;3.38;;;2.20;;
43345;SDS011;28937;51.160;4.146;2023-07-24T08:24:25;2.55;;;2.35;;
43345;SDS011;28937;51.160;4.146;2023-07-24T08:26:50;3.13;;;2.20;;
43345;SDS011;28937;51.160;4.146;2023-07-24T08:29:16;5.13;;;2.20;;
43345;SDS011;28937;51.160;4.146;2023-07-24T08:31:41;2.95;;;2.55;;
43345;SDS011;28937;51.160;4.146;2023-07-24T08:34:07;4.63;;;2.65;;
43345;SDS011;28937;51.160;4.146;2023-07-24T08:36:32;3.50;;;2.40;;
43345;SDS011;28937;51.160;4.146;2023-07-24T08:38:58;4.20;;;2.15;;
43345;SDS011;28937;51.160;4.146;2023-07-24T08:41:24;4.60;;;2.50;;
43345;SDS011;28937;51.160;4.146;2023-07-24T08:43:49;4.88;;;2.10;;
43345;SDS011;28937;51.160;4.146;2023-07-24T08:46:17;4.07;;;2.25;;
43345;SDS011;28937;51.160;4.146;2023-07-24T08:48:43;3.50;;;2.97;;
43345;SDS011;28937;51.160;4.146;2023-07-24T08:51:10;2.80;;;2.30;;
43345;SDS011;28937;51.160;4.146;2023-07-24T08:53:37;5.53;;;2.03;;
43345;SDS011;28937;51.160;4.146;2023-07-24T08:56:05;4.70;;;2.25;;
43345;SDS011;28937;51.160;4.146;2023-07-24T08:58:33;2.17;;;1.98;;
43345;SDS011;28937;51.160;4.146;2023-07-24T09:00:59;2.25;;;2.00;;
43345;SDS011;28937;51.160;4.146;2023-07-24T09:03:27;4.05;;;1.95;;
43345;SDS011;28937;51.160;4.146;2023-07-24T09:05:53;5.47;;;2.40;;
43345;SDS011;28937;51.160;4.146;2023-07-24T09:08:29;3.13;;;2.15;;
43345;SDS011;28937;51.160;4.146;2023-07-24T09:11:01;3.15;;;2.80;;
43345;SDS011;28937;51.160;4.146;2023-07-24T09:13:28;3.75;;;1.95;;
43345;SDS011;28937;51.160;4.146;2023-07-24T09:15:55;3.35;;;2.70;;
43345;SDS011;28937;51.160;4.146;2023-07-24T09:18:22;5.80;;;2.95;;
43345;SDS011;28937;51.160;4.146;2023-07-24T09:20:48;3.72;;;3.00;;
43345;SDS011;28937;51.160;4.146;2023-07-24T09:23:15;2.22;;;2.03;;
43345;SDS011;28937;51.160;4.146;2023-07-24T09:25:42;2.47;;;2.28;;
43345;SDS011;28937;51.160;4.146;2023-07-24T09:28:13;2.47;;;2.15;;
43345;SDS011;28937;51.160;4.146;2023-07-24T09:30:40;3.50;;;2.25;;
43345;SDS011;28937;51.160;4.146;2023-07-24T09:33:07;4.55;;;2.30;;
43345;SDS011;28937;51.160;4.146;2023-07-24T09:35:33;2.83;;;2.20;;
43345;SDS011;28937;51.160;4.146;2023-07-24T09:38:09;3.33;;;2.75;;
43345;SDS011;28937;51.160;4.146;2023-07-24T09:40:39;3.05;;;2.60;;
43345;SDS011;28937;51.160;4.146;2023-07-24T09:43:19;2.88;;;2.22;;
43345;SDS011;28937;51.160;4.146;2023-07-24T09:45:47;3.70;;;2.20;;
43345;SDS011;28937;51.160;4.146;2023-07-24T09:48:14;4.18;;;2.15;;
43345;SDS011;28937;51.160;4.146;2023-07-24T09:50:41;4.05;;;2.70;;
43345;SDS011;28937;51.160;4.146;2023-07-24T09:53:24;2.60;;;1.90;;
43345;SDS011;28937;51.160;4.146;2023-07-24T09:56:06;2.75;;;2.22;;
43345;SDS011;28937;51.160;4.146;2023-07-24T09:58:37;3.05;;;2.20;;
43345;SDS011;28937;51.160;4.146;2023-07-24T10:01:06;4.32;;;3.20;;
43345;SDS011;28937;51.160;4.146;2023-07-24T10:03:34;6.38;;;2.50;;
43345;SDS011;28937;51.160;4.146;2023-07-24T10:06:02;4.80;;;2.97;;
43345;SDS011;28937;51.160;4.146;2023-07-24T10:08:29;4.50;;;2.28;;
43345;SDS011;28937;51.160;4.146;2023-07-24T10:10:58;3.20;;;2.58;;
43345;SDS011;28937;51.160;4.146;2023-07-24T10:13:25;4.40;;;2.15;;
43345;SDS011;28937;51.160;4.146;2023-07-24T10:15:52;2.30;;;2.10;;
43345;SDS011;28937;51.160;4.146;2023-07-24T10:18:25;5.22;;;2.33;;
43345;SDS011;28937;51.160;4.146;2023-07-24T10:20:59;4.13;;;2.70;;
43345;SDS011;28937;51.160;4.146;2023-07-24T10:23:30;3.92;;;2.30;;
43345;SDS011;28937;51.160;4.146;2023-07-24T10:26:05;5.82;;;3.60;;
43345;SDS011;28937;51.160;4.146;2023-07-24T10:28:33;3.65;;;2.50;;
43345;SDS011;28937;51.160;4.146;2023-07-24T10:31:03;4.53;;;3.05;;
43345;SDS011;28937;51.160;4.146;2023-07-24T10:33:51;3.75;;;3.40;;
43345;SDS011;28937;51.160;4.146;2023-07-24T10:36:20;3.15;;;2.60;;
43345;SDS011;28937;51.160;4.146;2023-07-24T10:38:57;5.65;;;4.18;;
43345;SDS011;28937;51.160;4.146;2023-07-24T10:41:33;4.07;;;3.03;;
43345;SDS011;28937;51.160;4.146;2023-07-24T10:44:00;4.88;;;4.40;;
43345;SDS011;28937;51.160;4.146;2023-07-24T10:46:35;4.82;;;4.10;;
43345;SDS011;28937;51.160;4.146;2023-07-24T10:49:02;3.67;;;2.95;;
43345;SDS011;28937;51.160;4.146;2023-07-24T10:51:32;4.65;;;2.72;;
43345;SDS011;28937;51.160;4.146;2023-07-24T10:53:59;4.80;;;3.30;;
43345;SDS011;28937;51.160;4.146;2023-07-24T10:56:28;6.55;;;3.33;;
43345;SDS011;28937;51.160;4.146;2023-07-24T10:58:54;3.58;;;2.80;;
43345;SDS011;28937;51.160;4.146;2023-07-24T11:01:20;3.53;;;2.40;;
43345;SDS011;28937;51.160;4.146;2023-07-24T11:03:47;5.28;;;3.00;;
43345;SDS011;28937;51.160;4.146;2023-07-24T11:06:16;5.22;;;3.67;;
43345;SDS011;28937;51.160;4.146;2023-07-24T11:08:53;5.90;;;3.50;;
43345;SDS011;28937;51.160;4.146;2023-07-24T11:11:35;5.35;;;3.40;;
43345;SDS011;28937;51.160;4.146;2023-07-24T11:14:01;6.53;;;3.63;;
43345;SDS011;28937;51.160;4.146;2023-07-24T11:16:28;3.88;;;3.10;;
43345;SDS011;28937;51.160;4.146;2023-07-24T11:18:56;4.60;;;2.97;;
43345;SDS011;28937;51.160;4.146;2023-07-24T11:21:22;5.20;;;3.30;;
43345;SDS011;28937;51.160;4.146;2023-07-24T11:23:52;7.28;;;2.75;;
43345;SDS011;28937;51.160;4.146;2023-07-24T11:26:20;5.65;;;3.03;;
43345;SDS011;28937;51.160;4.146;2023-07-24T11:28:49;6.10;;;2.72;;
43345;SDS011;28937;51.160;4.146;2023-07-24T11:31:16;6.50;;;3.13;;
43345;SDS011;28937;51.160;4.146;2023-07-24T11:33:46;3.83;;;3.00;;
43345;SDS011;28937;51.160;4.146;2023-07-24T11:36:15;6.22;;;3.50;;
43345;SDS011;28937;51.160;4.146;2023-07-24T11:38:41;6.00;;;3.08;;
43345;SDS011;28937;51.160;4.146;2023-07-24T11:41:09;6.07;;;3.40;;
43345;SDS011;28937;51.160;4.146;2023-07-24T11:43:44;7.20;;;3.65;;
43345;SDS011;28937;51.160;4.146;2023-07-24T11:48:55;7.88;;;4.57;;
43345;SDS011;28937;51.160;4.146;2023-07-24T11:51:26;7.05;;;4.38;;
43345;SDS011;28937;51.160;4.146;2023-07-24T11:53:52;8.80;;;5.05;;
43345;SDS011;28937;51.160;4.146;2023-07-24T11:56:30;8.93;;;4.80;;
43345;SDS011;28937;51.160;4.146;2023-07-24T12:00:57;12.27;;;4.40;;
43345;SDS011;28937;51.160;4.146;2023-07-24T12:03:27;6.85;;;4.18;;
43345;SDS011;28937;51.160;4.146;2023-07-24T12:05:59;6.03;;;3.58;;
43345;SDS011;28937;51.160;4.146;2023-07-24T12:08:32;6.72;;;4.10;;
43345;SDS011;28937;51.160;4.146;2023-07-24T12:11:15;6.68;;;3.78;;
43345;SDS011;28937;51.160;4.146;2023-07-24T12:13:47;7.68;;;3.70;;
43345;SDS011;28937;51.160;4.146;2023-07-24T12:16:13;4.90;;;3.45;;
43345;SDS011;28937;51.160;4.146;2023-07-24T12:18:39;4.75;;;3.22;;
43345;SDS011;28937;51.160;4.146;2023-07-24T12:21:04;6.32;;;3.45;;
43345;SDS011;28937;51.160;4.146;2023-07-24T12:23:33;5.68;;;3.70;;
43345;SDS011;28937;51.160;4.146;2023-07-24T12:25:58;4.32;;;3.80;;
43345;SDS011;28937;51.160;4.146;2023-07-24T12:28:24;5.00;;;3.90;;
43345;SDS011;28937;51.160;4.146;2023-07-24T12:30:51;8.48;;;4.10;;
43345;SDS011;28937;51.160;4.146;2023-07-24T12:33:17;5.43;;;4.30;;
43345;SDS011;28937;51.160;4.146;2023-07-24T12:35:44;5.93;;;3.50;;
43345;SDS011;28937;51.160;4.146;2023-07-24T12:38:12;6.65;;;3.92;;
43345;SDS011;28937;51.160;4.146;2023-07-24T12:40:38;4.15;;;3.70;;
43345;SDS011;28937;51.160;4.146;2023-07-24T12:43:03;7.43;;;3.95;;
43345;SDS011;28937;51.160;4.146;2023-07-24T12:45:29;5.70;;;3.47;;
43345;SDS011;28937;51.160;4.146;2023-07-24T12:47:55;4.32;;;3.47;;
43345;SDS011;28937;51.160;4.146;2023-07-24T12:50:21;3.28;;;2.97;;
43345;SDS011;28937;51.160;4.146;2023-07-24T12:52:48;4.25;;;3.40;;
43345;SDS011;28937;51.160;4.146;2023-07-24T12:55:14;11.10;;;4.13;;
43345;SDS011;28937;51.160;4.146;2023-07-24T12:57:40;4.32;;;3.47;;
43345;SDS011;28937;51.160;4.146;2023-07-24T13:00:08;5.38;;;3.08;;
43345;SDS011;28937;51.160;4.146;2023-07-24T13:02:38;7.38;;;3.17;;
43345;SDS011;28937;51.160;4.146;2023-07-24T13:05:05;6.18;;;3.50;;
43345;SDS011;28937;51.160;4.146;2023-07-24T13:07:33;10.63;;;3.72;;
43345;SDS011;28937;51.160;4.146;2023-07-24T13:10:01;6.35;;;3.13;;
43345;SDS011;28937;51.160;4.146;2023-07-24T13:12:27;4.60;;;3.40;;
43345;SDS011;28937;51.160;4.146;2023-07-24T13:14:53;4.75;;;3.05;;
43345;SDS011;28937;51.160;4.146;2023-07-24T13:17:19;3.60;;;2.80;;
43345;SDS011;28937;51.160;4.146;2023-07-24T13:19:44;6.80;;;3.72;;
43345;SDS011;28937;51.160;4.146;2023-07-24T13:22:10;8.07;;;3.80;;
43345;SDS011;28937;51.160;4.146;2023-07-24T13:24:36;5.55;;;4.05;;
43345;SDS011;28937;51.160;4.146;2023-07-24T13:27:04;7.05;;;4.45;;
43345;SDS011;28937;51.160;4.146;2023-07-24T13:29:30;6.13;;;4.07;;
43345;SDS011;28937;51.160;4.146;2023-07-24T13:31:56;6.25;;;4.00;;
43345;SDS011;28937;51.160;4.146;2023-07-24T13:34:23;4.32;;;3.10;;
43345;SDS011;28937;51.160;4.146;2023-07-24T13:36:49;5.63;;;2.90;;
43345;SDS011;28937;51.160;4.146;2023-07-24T13:39:15;3.85;;;3.45;;
43345;SDS011;28937;51.160;4.146;2023-07-24T13:41:42;4.03;;;3.50;;
43345;SDS011;28937;51.160;4.146;2023-07-24T13:44:09;6.72;;;3.85;;
43345;SDS011;28937;51.160;4.146;2023-07-24T13:46:39;4.85;;;3.15;;
43345;SDS011;28937;51.160;4.146;2023-07-24T13:49:06;6.53;;;3.70;;
43345;SDS011;28937;51.160;4.146;2023-07-24T13:51:32;4.78;;;4.20;;
43345;SDS011;28937;51.160;4.146;2023-07-24T13:53:58;8.48;;;5.22;;
43345;SDS011;28937;51.160;4.146;2023-07-24T13:56:24;7.15;;;5.15;;
43345;SDS011;28937;51.160;4.146;2023-07-24T13:58:52;6.20;;;5.43;;
43345;SDS011;28937;51.160;4.146;2023-07-24T14:01:21;8.20;;;5.53;;
43345;SDS011;28937;51.160;4.146;2023-07-24T14:03:47;7.07;;;6.32;;
43345;SDS011;28937;51.160;4.146;2023-07-24T14:06:13;7.78;;;5.32;;
43345;SDS011;28937;51.160;4.146;2023-07-24T14:08:39;7.60;;;5.72;;
43345;SDS011;28937;51.160;4.146;2023-07-24T14:11:05;7.63;;;5.03;;
43345;SDS011;28937;51.160;4.146;2023-07-24T14:13:31;6.57;;;3.92;;
43345;SDS011;28937;51.160;4.146;2023-07-24T14:15:57;5.00;;;3.90;;
43345;SDS011;28937;51.160;4.146;2023-07-24T14:18:23;5.47;;;3.50;;
43345;SDS011;28937;51.160;4.146;2023-07-24T14:20:49;5.90;;;3.78;;
43345;SDS011;28937;51.160;4.146;2023-07-24T14:23:17;5.15;;;2.85;;
43345;SDS011;28937;51.160;4.146;2023-07-24T14:25:43;6.97;;;2.95;;
43345;SDS011;28937;51.160;4.146;2023-07-24T14:28:09;4.05;;;2.65;;
43345;SDS011;28937;51.160;4.146;2023-07-24T14:30:35;6.47;;;2.60;;
43345;SDS011;28937;51.160;4.146;2023-07-24T14:33:00;7.63;;;2.78;;
43345;SDS011;28937;51.160;4.146;2023-07-24T14:35:26;3.83;;;2.42;;
43345;SDS011;28937;51.160;4.146;2023-07-24T14:37:51;3.50;;;2.45;;
43345;SDS011;28937;51.160;4.146;2023-07-24T14:40:18;5.20;;;3.03;;
43345;SDS011;28937;51.160;4.146;2023-07-24T14:42:44;4.22;;;3.33;;
43345;SDS011;28937;51.160;4.146;2023-07-24T14:45:10;6.70;;;2.80;;
43345;SDS011;28937;51.160;4.146;2023-07-24T14:47:35;3.95;;;2.63;;
43345;SDS011;28937;51.160;4.146;2023-07-24T14:50:01;5.93;;;3.20;;
43345;SDS011;28937;51.160;4.146;2023-07-24T14:52:26;5.05;;;2.58;;
43345;SDS011;28937;51.160;4.146;2023-07-24T14:54:52;5.45;;;3.13;;